Time;durP1;ratioP1;P1;durP2;ratioP2;P2;SDS_P1;SDS_P2;PMS_P1;PMS_P2;Temp;Humidity;BMP_temperature;BMP_pressure;BME280_temperature;BME280_humidity;BME280_pressure;Samples;Min_cycle;Max_cycle;Signal;HPM_P1;HPM_P2
2021/07/14 00:01:57;;;;;;;67.18;38.78;;;18.80;99.90;;;;;;5045266;28;19921;-79
2021/07/14 00:04:23;;;;;;;70.15;38.95;;;18.70;99.90;;;;;;5025391;28;20459;-78
2021/07/14 00:06:49;;;;;;;;;;;18.80;99.90;;;;;;5041704;28;20037;-77
2021/07/14 00:09:15;;;;;;;66.80;38.22;;;18.70;99.90;;;;;;5035565;28;19921;-77
2021/07/14 00:11:44;;;;;;;63.05;39.03;;;18.80;99.90;;;;;;5038544;28;20083;-77
2021/07/14 00:22:13;;;;;;;75.10;39.83;;;18.70;99.90;;;;;;5052866;28;20082;-78
2021/07/14 00:24:40;;;;;;;76.55;40.97;;;18.70;99.90;;;;;;5052480;28;20509;-78
2021/07/14 00:27:08;;;;;;;65.95;37.78;;;18.70;99.90;;;;;;5038771;28;20033;-78
2021/07/14 00:29:36;;;;;;;73.80;39.22;;;18.70;99.90;;;;;;5038744;28;20450;-78
2021/07/14 00:32:04;;;;;;;74.28;40.08;;;18.70;99.90;;;;;;5042999;28;20080;-78
2021/07/14 00:34:29;;;;;;;69.10;38.40;;;18.70;99.90;;;;;;5030117;28;20176;-77
2021/07/14 00:36:55;;;;;;;;;;;18.70;99.90;;;;;;5028314;28;20120;-77
2021/07/14 00:39:21;;;;;;;64.10;38.22;;;18.60;99.90;;;;;;5016052;28;20005;-78
2021/07/14 00:41:46;;;;;;;;;;;18.70;99.90;;;;;;5037812;28;20103;-77
2021/07/14 00:44:12;;;;;;;67.40;37.63;;;18.60;99.90;;;;;;5023037;28;20381;-78
2021/07/14 00:46:40;;;;;;;77.93;41.95;;;18.60;99.90;;;;;;5043446;28;20041;-77
2021/07/14 00:49:06;;;;;;;82.28;40.47;;;18.60;99.90;;;;;;5039700;28;20052;-78
2021/07/14 00:51:32;;;;;;;90.63;41.15;;;18.60;99.90;;;;;;5040874;28;20056;-77
2021/07/14 00:53:59;;;;;;;84.72;41.83;;;18.60;99.90;;;;;;5040697;28;20037;-77
2021/07/14 00:56:26;;;;;;;92.85;42.95;;;18.60;99.90;;;;;;5040656;28;20062;-77
2021/07/14 00:58:57;;;;;;;94.90;44.95;;;18.50;99.90;;;;;;5038482;28;20041;-77
2021/07/14 01:01:24;;;;;;;103.05;47.45;;;18.60;99.90;;;;;;5037610;28;20036;-77
2021/07/14 01:04:15;;;;;;;119.25;49.25;;;18.50;99.90;;;;;;5023696;28;20095;-78
2021/07/14 01:07:08;;;;;;;123.50;53.22;;;18.50;99.90;;;;;;5052203;28;20045;-78
2021/07/14 01:09:52;;;;;;;137.13;56.20;;;18.50;99.90;;;;;;5050421;28;20539;-77
2021/07/14 01:12:31;;;;;;;130.18;55.63;;;18.50;99.90;;;;;;5044416;28;20467;-78
2021/07/14 01:15:02;;;;;;;131.40;54.88;;;18.50;99.90;;;;;;5038770;28;20102;-77
2021/07/14 01:17:31;;;;;;;140.20;57.65;;;18.50;99.90;;;;;;5032555;28;20037;-78
2021/07/14 01:20:16;;;;;;;174.80;60.50;;;18.50;99.90;;;;;;5048630;28;20490;-78
2021/07/14 01:22:46;;;;;;;146.75;58.28;;;18.50;99.90;;;;;;5048497;28;20056;-78
2021/07/14 01:25:18;;;;;;;161.68;57.33;;;18.50;99.90;;;;;;5044210;28;20410;-78
2021/07/14 01:27:47;;;;;;;184.70;58.17;;;18.50;99.90;;;;;;5038145;28;20044;-78
2021/07/14 01:30:15;;;;;;;183.30;56.35;;;18.50;99.90;;;;;;5045916;28;20036;-78
2021/07/14 01:32:43;;;;;;;166.52;54.92;;;18.40;99.90;;;;;;5036509;28;20363;-78
2021/07/14 01:35:20;;;;;;;173.82;56.65;;;18.40;99.90;;;;;;5043763;28;20064;-78
2021/07/14 01:37:48;;;;;;;185.45;57.00;;;18.40;99.90;;;;;;5046218;28;20021;-77
2021/07/14 01:40:17;;;;;;;184.10;58.22;;;18.40;99.90;;;;;;5040519;28;20116;-78
2021/07/14 01:42:45;;;;;;;159.38;55.00;;;18.40;99.90;;;;;;5023553;28;20434;-78
2021/07/14 01:45:12;;;;;;;152.93;55.92;;;18.40;99.90;;;;;;5040577;28;20043;-77
2021/07/14 01:47:40;;;;;;;130.73;48.97;;;18.40;99.90;;;;;;5019938;28;20399;-77
2021/07/14 01:50:07;;;;;;;130.00;51.28;;;18.40;99.90;;;;;;5048673;28;20063;-78
2021/07/14 01:52:34;;;;;;;118.93;49.05;;;18.40;99.90;;;;;;5004740;28;20136;-77
2021/07/14 01:55:07;;;;;;;113.70;47.05;;;18.40;99.90;;;;;;5008185;28;20104;-77
2021/07/14 01:57:36;;;;;;;116.03;45.22;;;18.40;99.90;;;;;;5030053;28;20108;-77
2021/07/14 02:00:05;;;;;;;113.32;45.25;;;18.40;99.90;;;;;;5034433;28;20041;-77
2021/07/14 02:02:34;;;;;;;102.32;40.60;;;18.30;99.90;;;;;;5027735;28;20042;-78
2021/07/14 02:05:03;;;;;;;94.57;40.17;;;18.40;99.90;;;;;;5034323;28;20095;-77
2021/07/14 02:07:30;;;;;;;101.18;41.10;;;18.40;99.90;;;;;;5031704;28;20038;-77
2021/07/14 02:09:57;;;;;;;110.50;41.50;;;18.40;99.90;;;;;;5018291;28;20372;-77
2021/07/14 02:12:29;;;;;;;104.43;40.25;;;18.40;99.90;;;;;;5046241;28;20049;-77
2021/07/14 02:14:58;;;;;;;98.45;40.38;;;18.40;99.90;;;;;;5044950;28;20041;-77
2021/07/14 02:17:29;;;;;;;108.93;40.63;;;18.40;99.90;;;;;;5032982;28;20083;-77
2021/07/14 02:20:00;;;;;;;99.22;40.20;;;18.40;99.90;;;;;;5035149;28;20044;-77
2021/07/14 02:22:27;;;;;;;108.10;40.15;;;18.40;99.90;;;;;;5049055;28;20033;-77
2021/07/14 02:24:54;;;;;;;109.13;42.67;;;18.30;99.90;;;;;;5044898;28;20474;-77
2021/07/14 02:27:19;;;;;;;112.75;41.33;;;18.40;99.90;;;;;;5030778;28;20037;-77
2021/07/14 02:29:47;;;;;;;;;;;18.40;99.90;;;;;;5040797;28;20466;-77
2021/07/14 02:32:16;;;;;;;122.35;43.33;;;18.30;99.90;;;;;;5037912;28;19956;-77
2021/07/14 02:34:44;;;;;;;125.03;43.70;;;18.30;99.90;;;;;;5033235;28;20037;-77
2021/07/14 02:37:12;;;;;;;124.60;44.25;;;18.40;99.90;;;;;;5034274;28;20041;-77
2021/07/14 02:39:42;;;;;;;130.15;44.75;;;18.30;99.90;;;;;;5039683;28;20147;-77
2021/07/14 02:42:27;;;;;;;128.32;45.75;;;18.30;99.90;;;;;;5034102;28;20033;-77
2021/07/14 02:44:53;;;;;;;122.10;46.53;;;18.30;99.90;;;;;;5039625;28;20041;-77
2021/07/14 02:47:21;;;;;;;109.57;45.47;;;18.30;99.90;;;;;;5032236;28;20391;-77
2021/07/14 02:49:48;;;;;;;110.32;43.85;;;18.30;99.90;;;;;;5034447;28;20429;-77
2021/07/14 02:52:15;;;;;;;103.63;44.35;;;18.30;99.90;;;;;;5014827;28;20033;-77
2021/07/14 02:54:44;;;;;;;103.28;43.75;;;18.30;99.90;;;;;;5062918;28;20040;-77
2021/07/14 02:57:14;;;;;;;98.10;45.35;;;18.30;99.90;;;;;;5035444;28;20056;-77
2021/07/14 02:59:45;;;;;;;98.90;42.88;;;18.30;99.90;;;;;;5046192;28;20064;-77
2021/07/14 03:02:13;;;;;;;89.30;42.13;;;18.30;99.90;;;;;;5039514;28;20390;-79
2021/07/14 03:04:45;;;;;;;92.78;45.35;;;18.30;99.90;;;;;;5035814;28;20403;-77
2021/07/14 03:07:12;;;;;;;89.32;42.67;;;18.30;99.90;;;;;;5041268;28;20037;-78
2021/07/14 03:09:39;;;;;;;;;;;18.30;99.90;;;;;;5044216;28;20112;-77
2021/07/14 03:12:12;;;;;;;93.88;43.90;;;18.30;99.90;;;;;;5047759;28;19928;-77
2021/07/14 03:14:43;;;;;;;93.45;45.25;;;18.30;99.90;;;;;;5028319;28;20483;-77
2021/07/14 03:17:12;;;;;;;84.68;43.92;;;18.30;99.90;;;;;;5034156;28;20041;-77
2021/07/14 03:19:38;;;;;;;83.57;43.25;;;18.30;99.90;;;;;;5040741;28;20442;-77
2021/07/14 03:22:05;;;;;;;85.70;45.88;;;18.30;99.90;;;;;;5023624;28;20037;-77
2021/07/14 03:24:34;;;;;;;79.10;41.80;;;18.30;99.90;;;;;;5044460;28;20060;-77
2021/07/14 03:27:04;;;;;;;73.97;40.35;;;18.40;99.90;;;;;;5038493;28;20125;-77
2021/07/14 03:29:32;;;;;;;72.47;41.20;;;18.40;99.90;;;;;;5038863;28;20108;-78
2021/07/14 03:32:00;;;;;;;67.95;40.30;;;18.30;99.90;;;;;;5062922;28;20033;-77
2021/07/14 03:34:26;;;;;;;67.20;41.05;;;18.30;99.90;;;;;;5043173;28;20033;-78
2021/07/14 03:36:52;;;;;;;;;;;18.30;99.90;;;;;;5071349;28;20036;-77
2021/07/14 03:39:18;;;;;;;66.07;40.65;;;18.30;99.90;;;;;;5043807;28;19916;-78
2021/07/14 03:41:46;;;;;;;70.55;40.33;;;18.30;99.90;;;;;;5070042;28;20481;-77
2021/07/14 03:44:14;;;;;;;62.58;38.55;;;18.30;99.90;;;;;;5034590;28;20493;-77
2021/07/14 03:46:43;;;;;;;61.97;38.45;;;18.30;99.90;;;;;;5031438;28;20095;-78
2021/07/14 03:49:11;;;;;;;66.85;41.15;;;18.30;99.90;;;;;;5029955;28;20500;-77
2021/07/14 03:51:37;;;;;;;59.53;40.08;;;18.30;99.90;;;;;;5026840;28;20092;-77
2021/07/14 03:54:03;;;;;;;;;;;18.40;99.90;;;;;;4996657;28;20049;-77
2021/07/14 03:56:29;;;;;;;62.40;38.70;;;18.40;99.90;;;;;;5052885;28;19916;-77
2021/07/14 03:58:56;;;;;;;61.55;37.38;;;18.40;99.90;;;;;;5038125;28;20026;-78
2021/07/14 04:01:23;;;;;;;64.72;39.28;;;18.30;99.90;;;;;;5057843;28;20048;-78
2021/07/14 04:03:53;;;;;;;62.60;38.85;;;18.40;99.90;;;;;;5027301;28;20041;-76
2021/07/14 04:06:20;;;;;;;61.78;39.55;;;18.40;99.90;;;;;;5047857;28;20112;-77
2021/07/14 04:09:19;;;;;;;68.00;38.33;;;18.40;99.90;;;;;;5041831;28;20045;-77
2021/07/14 04:11:47;;;;;;;64.53;39.15;;;18.40;99.90;;;;;;5041288;28;20047;-77
2021/07/14 04:14:13;;;;;;;64.30;39.17;;;18.40;99.90;;;;;;5042328;28;20124;-77
2021/07/14 04:16:38;;;;;;;;;;;18.50;99.90;;;;;;5044415;28;20033;-77
2021/07/14 04:19:05;;;;;;;66.72;40.60;;;18.50;99.90;;;;;;5044658;28;19916;-78
2021/07/14 04:21:30;;;;;;;65.63;39.00;;;18.50;99.90;;;;;;5034458;28;20032;-77
2021/07/14 04:23:56;;;;;;;;;;;18.50;99.90;;;;;;5033241;28;20430;-77
2021/07/14 04:26:23;;;;;;;59.97;36.10;;;18.50;99.90;;;;;;5006388;28;19955;-78
2021/07/14 04:28:53;;;;;;;60.50;38.10;;;18.50;99.90;;;;;;5013781;28;20470;-78
2021/07/14 04:31:19;;;;;;;56.38;36.22;;;18.50;99.90;;;;;;5031184;28;20475;-78
2021/07/14 04:33:45;;;;;;;56.25;34.75;;;18.50;99.90;;;;;;5026715;28;20125;-77
2021/07/14 04:36:11;;;;;;;;;;;18.50;99.90;;;;;;5043615;28;20128;-78
2021/07/14 04:38:37;;;;;;;51.17;34.25;;;18.50;99.90;;;;;;5033046;28;19917;-77
2021/07/14 04:41:04;;;;;;;56.05;34.15;;;18.50;99.90;;;;;;5042261;28;20029;-77
2021/07/14 04:43:30;;;;;;;51.80;33.63;;;18.50;99.90;;;;;;5030072;28;20049;-79
2021/07/14 04:45:58;;;;;;;;;;;18.60;99.90;;;;;;5038374;28;20029;-77
2021/07/14 04:48:27;;;;;;;47.40;31.55;;;18.50;99.90;;;;;;5038415;28;20558;-78
2021/07/14 04:50:52;;;;;;;42.83;30.42;;;18.50;99.90;;;;;;5028860;28;20032;-76
2021/07/14 04:53:18;;;;;;;;;;;18.50;99.90;;;;;;5025552;28;20450;-77
2021/07/14 04:55:44;;;;;;;45.05;29.77;;;18.60;99.90;;;;;;5054276;28;19917;-76
2021/07/14 04:58:10;;;;;;;;;;;18.60;99.90;;;;;;5037684;28;20395;-77
2021/07/14 05:00:36;;;;;;;46.53;28.70;;;18.60;99.90;;;;;;5020583;28;19924;-77
2021/07/14 05:03:02;;;;;;;;;;;18.60;99.90;;;;;;5042671;28;20041;-77
2021/07/14 05:05:28;;;;;;;40.22;28.23;;;18.60;99.90;;;;;;5035737;28;19924;-77
2021/07/14 05:07:53;;;;;;;;;;;18.60;99.90;;;;;;5036417;28;20068;-77
2021/07/14 05:10:24;;;;;;;40.20;26.27;;;18.60;99.90;;;;;;5028634;28;19929;-80
2021/07/14 05:12:51;;;;;;;34.75;25.58;;;18.70;99.90;;;;;;5032154;28;20476;-78
2021/07/14 05:15:17;;;;;;;37.65;26.48;;;18.70;99.90;;;;;;5044243;28;20116;-76
2021/07/14 05:17:42;;;;;;;;;;;18.70;99.90;;;;;;5042059;28;20538;-76
2021/07/14 05:20:09;;;;;;;38.53;24.08;;;18.70;99.90;;;;;;5040396;28;20306;-83
2021/07/14 05:22:36;;;;;;;33.55;23.75;;;18.70;99.90;;;;;;5029300;28;20084;-82
2021/07/14 05:25:08;;;;;;;35.40;23.98;;;18.80;99.90;;;;;;5040534;28;20116;-79
2021/07/14 05:27:34;;;;;;;38.00;22.23;;;18.80;99.90;;;;;;5032630;28;20041;-80
2021/07/14 05:30:00;;;;;;;;;;;18.80;99.90;;;;;;5049132;28;20055;-83
2021/07/14 05:32:27;;;;;;;31.95;22.65;;;18.90;99.90;;;;;;5042634;28;19921;-79
2021/07/14 05:34:52;;;;;;;;;;;19.00;99.90;;;;;;5050756;28;20125;-82
2021/07/14 05:37:18;;;;;;;32.78;22.55;;;19.00;99.90;;;;;;5038553;28;19932;-83
2021/07/14 05:39:44;;;;;;;;;;;19.10;99.90;;;;;;5028688;28;20052;-82
2021/07/14 05:42:10;;;;;;;32.50;22.77;;;19.10;99.90;;;;;;5031380;28;19955;-82
2021/07/14 05:44:36;;;;;;;;;;;19.10;99.90;;;;;;5029379;28;20072;-82
2021/07/14 05:47:03;;;;;;;34.15;22.35;;;19.20;99.90;;;;;;5030929;28;20290;-85
2021/07/14 05:49:32;;;;;;;34.30;22.17;;;19.30;99.90;;;;;;5026080;28;20444;-81
2021/07/14 05:51:57;;;;;;;27.60;20.58;;;19.40;99.90;;;;;;5051049;28;20123;-81
2021/07/14 05:54:23;;;;;;;;;;;19.50;99.90;;;;;;5036666;28;20029;-83
2021/07/14 05:56:49;;;;;;;30.00;20.52;;;19.60;99.90;;;;;;5024135;28;19921;-80
2021/07/14 05:59:15;;;;;;;;;;;19.70;99.90;;;;;;5034622;28;20457;-80
2021/07/14 06:01:41;;;;;;;28.60;20.13;;;19.70;99.90;;;;;;5023313;28;20016;-81
2021/07/14 06:04:06;;;;;;;28.00;18.88;;;19.80;99.90;;;;;;5018538;28;20124;-81
2021/07/14 06:06:32;;;;;;;;;;;19.90;99.90;;;;;;5045946;28;20029;-82
2021/07/14 06:08:58;;;;;;;26.10;18.85;;;20.10;99.90;;;;;;5009534;28;19984;-80
2021/07/14 06:11:25;;;;;;;27.83;19.27;;;20.20;99.90;;;;;;5038829;28;20541;-82
2021/07/14 06:13:51;;;;;;;27.08;19.30;;;20.30;99.90;;;;;;5036978;28;20045;-77
2021/07/14 06:16:17;;;;;;;21.80;18.08;;;20.30;99.90;;;;;;5036801;28;20111;-76
2021/07/14 06:18:43;;;;;;;20.85;17.67;;;20.40;99.90;;;;;;5055890;28;20049;-81
2021/07/14 06:21:10;;;;;;;24.15;18.38;;;20.40;99.90;;;;;;5047357;28;20108;-81
2021/07/14 06:23:36;;;;;;;21.90;16.60;;;20.50;99.90;;;;;;5044646;28;20459;-81
2021/07/14 06:26:02;;;;;;;21.77;17.52;;;20.40;99.90;;;;;;5026465;28;20033;-83
2021/07/14 06:28:28;;;;;;;26.88;18.20;;;20.30;99.90;;;;;;5038367;28;20040;-81
2021/07/14 06:30:54;;;;;;;22.95;17.63;;;20.20;99.90;;;;;;5043883;28;20387;-77
2021/07/14 06:33:22;;;;;;;24.00;17.42;;;20.20;99.90;;;;;;5027756;28;20056;-82
2021/07/14 06:35:50;;;;;;;23.90;17.70;;;20.10;99.90;;;;;;5040531;28;20554;-79
2021/07/14 06:38:16;;;;;;;23.27;16.90;;;20.10;99.90;;;;;;5040790;28;20037;-80
2021/07/14 06:40:42;;;;;;;23.40;17.42;;;20.00;99.90;;;;;;5046683;28;20068;-80
2021/07/14 06:43:10;;;;;;;;;;;20.10;99.90;;;;;;5044366;28;20563;-80
2021/07/14 06:45:36;;;;;;;21.42;17.02;;;20.10;99.90;;;;;;5035462;28;19946;-80
2021/07/14 06:48:02;;;;;;;21.15;17.02;;;20.20;99.90;;;;;;5045103;28;20752;-78
2021/07/14 06:50:28;;;;;;;25.70;17.70;;;20.30;99.90;;;;;;5047824;28;20037;-82
2021/07/14 06:52:54;;;;;;;22.58;16.73;;;20.40;99.90;;;;;;5022423;28;20052;-80
2021/07/14 06:55:19;;;;;;;;;;;20.50;99.90;;;;;;5039451;28;20118;-79
2021/07/14 06:57:45;;;;;;;24.13;16.48;;;20.50;99.90;;;;;;5042708;28;20008;-82
2021/07/14 07:00:12;;;;;;;;;;;20.60;99.90;;;;;;5051132;28;20039;-80
2021/07/14 07:02:38;;;;;;;19.77;15.50;;;20.60;99.90;;;;;;5041261;28;19928;-80
2021/07/14 07:05:07;;;;;;;20.90;16.75;;;20.60;99.90;;;;;;5031186;28;20086;-79
2021/07/14 07:07:33;;;;;;;19.33;16.20;;;20.60;99.90;;;;;;5018502;28;20094;-82
2021/07/14 07:09:59;;;;;;;20.27;17.35;;;20.60;99.90;;;;;;5009132;28;20045;-82
2021/07/14 07:12:28;;;;;;;22.63;17.38;;;20.50;99.90;;;;;;5022009;28;20054;-80
2021/07/14 07:14:54;;;;;;;23.75;18.85;;;20.50;99.90;;;;;;5019052;28;20052;-81
2021/07/14 07:17:23;;;;;;;22.73;18.13;;;20.20;99.90;;;;;;5018108;28;20036;-83
2021/07/14 07:20:02;;;;;;;25.30;17.73;;;20.60;99.90;;;;;;5091775;27;1341820;-78
2021/07/14 07:22:30;;;;;;;24.33;17.77;;;20.60;99.90;;;;;;5112989;28;20047;-79
2021/07/14 07:24:59;;;;;;;20.90;17.50;;;20.70;99.90;;;;;;5114047;28;20043;-79
2021/07/14 07:27:27;;;;;;;22.55;17.02;;;20.80;99.90;;;;;;5117264;28;20042;-80
2021/07/14 07:29:53;;;;;;;22.73;18.45;;;20.90;99.90;;;;;;5114954;28;20142;-80
2021/07/14 07:32:18;;;;;;;24.10;18.35;;;20.90;99.90;;;;;;5101660;28;20172;-80
2021/07/14 07:34:45;;;;;;;24.23;20.02;;;20.90;99.90;;;;;;5095890;28;20141;-79
2021/07/14 07:37:11;;;;;;;24.27;18.65;;;20.90;99.90;;;;;;5120644;28;20131;-79
2021/07/14 07:39:38;;;;;;;23.90;18.08;;;21.00;99.90;;;;;;5115728;28;20501;-80
2021/07/14 07:42:06;;;;;;;20.73;17.33;;;21.00;99.90;;;;;;5088715;28;20476;-80
2021/07/14 07:44:32;;;;;;;22.58;17.85;;;21.10;99.90;;;;;;5094824;28;20135;-79
2021/07/14 07:46:58;;;;;;;21.98;16.90;;;21.20;99.90;;;;;;5089125;28;20040;-80
2021/07/14 07:49:24;;;;;;;22.55;18.30;;;21.20;99.90;;;;;;5103993;28;20050;-77
2021/07/14 07:51:50;;;;;;;29.23;17.67;;;21.30;99.90;;;;;;5095920;28;20429;-79
2021/07/14 07:54:16;;;;;;;25.98;18.00;;;21.30;99.90;;;;;;5120091;28;20035;-81
2021/07/14 07:56:41;;;;;;;24.30;18.23;;;21.30;99.90;;;;;;5119955;28;20040;-79
2021/07/14 07:59:08;;;;;;;27.02;18.13;;;21.30;99.90;;;;;;5117736;27;20055;-79
2021/07/14 08:01:36;;;;;;;19.77;17.08;;;21.30;99.90;;;;;;5118924;28;20472;-81
2021/07/14 08:04:02;;;;;;;23.02;18.00;;;21.30;99.90;;;;;;5117061;28;20035;-79
2021/07/14 08:06:27;;;;;;;21.90;18.30;;;21.30;99.90;;;;;;5118737;28;20036;-78
2021/07/14 08:08:53;;;;;;;22.73;18.17;;;21.30;99.90;;;;;;5100940;28;20050;-79
2021/07/14 08:11:19;;;;;;;26.48;19.02;;;21.30;99.90;;;;;;5121292;28;20434;-81
2021/07/14 08:13:45;;;;;;;25.73;18.60;;;21.30;99.90;;;;;;5122084;28;20122;-81
2021/07/14 08:16:11;;;;;;;22.38;18.65;;;21.30;99.90;;;;;;5105329;28;20042;-80
2021/07/14 08:18:36;;;;;;;;;;;21.40;99.90;;;;;;5124204;28;20052;-80
2021/07/14 08:21:02;;;;;;;24.73;17.65;;;21.40;99.90;;;;;;5126218;28;19964;-81
2021/07/14 08:23:29;;;;;;;24.42;19.00;;;21.40;99.90;;;;;;5118863;28;20049;-81
2021/07/14 08:25:54;;;;;;;22.40;19.83;;;21.50;99.90;;;;;;5121101;28;20040;-81
2021/07/14 08:28:21;;;;;;;22.20;18.23;;;21.40;99.90;;;;;;5086841;28;20047;-78
2021/07/14 08:30:48;;;;;;;24.27;18.85;;;21.40;99.90;;;;;;5119892;28;20040;-80
2021/07/14 08:33:13;;;;;;;21.20;18.17;;;21.20;99.90;;;;;;5109668;28;20039;-78
2021/07/14 08:35:40;;;;;;;26.33;18.42;;;21.40;99.90;;;;;;5067882;28;20272;-78
2021/07/14 08:38:08;;;;;;;25.13;19.05;;;21.40;99.90;;;;;;5074306;28;20044;-80
2021/07/14 08:40:35;;;;;;;24.60;19.02;;;21.40;99.90;;;;;;5086437;28;20447;-80
2021/07/14 08:43:02;;;;;;;25.27;19.50;;;21.30;99.90;;;;;;5082332;28;20039;-79
2021/07/14 08:45:28;;;;;;;23.63;19.73;;;21.30;99.90;;;;;;5097429;28;20036;-80
2021/07/14 08:47:53;;;;;;;27.02;20.38;;;21.30;99.90;;;;;;5094893;28;20028;-80
2021/07/14 08:50:21;;;;;;;28.10;19.77;;;21.20;99.90;;;;;;5074950;28;20416;-81
2021/07/14 08:52:49;;;;;;;26.33;18.80;;;21.20;99.90;;;;;;5091540;28;20062;-79
2021/07/14 08:55:19;;;;;;;24.10;18.27;;;21.20;99.90;;;;;;5102475;28;20031;-80
2021/07/14 08:57:46;;;;;;;31.45;19.33;;;21.20;99.90;;;;;;5107137;28;20393;-79
2021/07/14 09:00:17;;;;;;;27.58;19.05;;;21.30;99.90;;;;;;5113702;28;20055;-80
2021/07/14 09:02:43;;;;;;;29.25;19.48;;;21.30;99.90;;;;;;5103974;28;20352;-81
2021/07/14 09:05:10;;;;;;;24.58;19.60;;;21.40;99.90;;;;;;5103333;28;20039;-80
2021/07/14 09:07:38;;;;;;;23.48;18.92;;;21.50;99.90;;;;;;5094101;28;20047;-79
2021/07/14 09:10:06;;;;;;;27.20;19.42;;;21.50;99.90;;;;;;5104535;28;20079;-79
2021/07/14 09:12:43;;;;;;;26.33;18.67;;;21.60;99.90;;;;;;5106615;28;20488;-80
2021/07/14 09:15:19;;;;;;;21.58;17.73;;;21.70;99.90;;;;;;5097207;28;20449;-78
2021/07/14 09:17:48;;;;;;;21.08;17.70;;;21.90;99.90;;;;;;5102928;28;20039;-79
2021/07/14 09:20:15;;;;;;;21.63;17.27;;;22.10;99.90;;;;;;5106947;28;20058;-81
2021/07/14 09:22:42;;;;;;;26.55;19.58;;;22.30;99.90;;;;;;5100167;28;20031;-81
2021/07/14 09:25:14;;;;;;;25.08;18.95;;;22.30;99.90;;;;;;5097340;28;20043;-79
2021/07/14 09:27:56;;;;;;;21.23;15.95;;;22.40;99.90;;;;;;5092217;28;20057;-80
2021/07/14 09:30:27;;;;;;;18.83;16.40;;;22.40;99.90;;;;;;5101015;28;20039;-79
2021/07/14 09:32:56;;;;;;;25.63;17.65;;;22.40;99.90;;;;;;5113696;28;20059;-79
2021/07/14 09:35:27;;;;;;;22.48;16.33;;;22.40;99.90;;;;;;5099845;28;20445;-81
2021/07/14 09:37:58;;;;;;;23.35;16.55;;;22.40;99.90;;;;;;5096961;28;20131;-79
2021/07/14 09:40:24;;;;;;;20.20;16.65;;;22.50;99.90;;;;;;5104704;28;20491;-81
2021/07/14 09:43:06;;;;;;;21.42;15.82;;;22.50;99.90;;;;;;5077549;28;20039;-80
2021/07/14 09:45:35;;;;;;;24.60;17.20;;;22.40;99.90;;;;;;5102819;28;20063;-79
2021/07/14 09:48:02;;;;;;;24.02;15.52;;;22.40;99.90;;;;;;5102434;28;20377;-79
2021/07/14 09:50:48;;;;;;;21.52;16.33;;;22.40;99.90;;;;;;5080455;28;20034;-80
2021/07/14 09:53:19;;;;;;;20.00;16.13;;;22.40;99.90;;;;;;5094009;28;20097;-79
2021/07/14 09:55:48;;;;;;;20.35;16.40;;;22.40;99.90;;;;;;5108146;28;20050;-80
2021/07/14 09:58:17;;;;;;;23.70;15.73;;;22.50;99.90;;;;;;5101334;28;20043;-80
2021/07/14 10:00:50;;;;;;;22.33;16.75;;;22.40;99.90;;;;;;5103121;28;20081;-81
2021/07/14 10:03:21;;;;;;;18.77;15.35;;;22.40;99.90;;;;;;5109134;28;20044;-81
2021/07/14 10:05:49;;;;;;;21.85;15.07;;;22.40;99.90;;;;;;5101528;28;20043;-79
2021/07/14 10:08:20;;;;;;;19.48;16.15;;;22.30;99.90;;;;;;5090082;28;20153;-80
2021/07/14 10:10:48;;;;;;;20.85;17.05;;;22.30;99.90;;;;;;5082923;28;20481;-80
2021/07/14 10:13:14;;;;;;;22.55;15.80;;;22.20;99.90;;;;;;5107623;28;20043;-81
2021/07/14 10:15:41;;;;;;;20.17;15.98;;;22.20;99.90;;;;;;5109226;28;20537;-81
2021/07/14 10:18:12;;;;;;;20.75;15.25;;;22.10;99.90;;;;;;5086689;28;20051;-79
2021/07/14 10:20:40;;;;;;;17.95;15.63;;;22.10;99.90;;;;;;5083756;28;20104;-80
2021/07/14 10:23:09;;;;;;;20.42;15.73;;;22.20;99.90;;;;;;5077233;28;20643;-82
2021/07/14 10:25:37;;;;;;;22.73;17.52;;;22.20;99.90;;;;;;5075979;28;20400;-81
2021/07/14 10:28:06;;;;;;;23.10;16.50;;;22.20;99.90;;;;;;5094730;28;20059;-80
2021/07/14 10:30:32;;;;;;;23.27;17.77;;;22.20;99.90;;;;;;5102807;28;20043;-81
2021/07/14 10:32:59;;;;;;;25.65;17.27;;;22.10;99.90;;;;;;5089644;28;20104;-81
2021/07/14 10:35:30;;;;;;;22.48;17.40;;;22.10;99.90;;;;;;5098198;28;20748;-82
2021/07/14 10:38:03;;;;;;;27.73;16.70;;;22.20;99.90;;;;;;5107255;28;20138;-79
2021/07/14 10:40:29;;;;;;;20.45;16.15;;;22.40;99.90;;;;;;5081066;28;20122;-81
2021/07/14 10:42:55;;;;;;;23.27;16.75;;;22.50;99.90;;;;;;5074544;28;20059;-79
2021/07/14 10:45:22;;;;;;;24.10;16.48;;;22.60;99.90;;;;;;5101835;28;20503;-80
2021/07/14 10:47:50;;;;;;;21.15;15.18;;;22.60;99.90;;;;;;5098388;28;20043;-81
2021/07/14 10:50:18;;;;;;;23.05;16.95;;;22.60;99.90;;;;;;5088374;28;20063;-79
2021/07/14 10:52:45;;;;;;;22.77;15.98;;;22.50;99.90;;;;;;5116256;28;20039;-81
2021/07/14 10:55:18;;;;;;;22.40;15.70;;;22.40;99.90;;;;;;5107714;28;20096;-80
2021/07/14 10:57:45;;;;;;;22.50;15.82;;;22.60;99.90;;;;;;5081194;28;20359;-79
2021/07/14 11:00:12;;;;;;;24.10;16.17;;;22.70;99.90;;;;;;5098378;28;20036;-81
2021/07/14 11:02:49;;;;;;;21.13;15.93;;;22.90;99.90;;;;;;5069587;28;20043;-78
2021/07/14 11:05:30;;;;;;;24.05;15.70;;;23.00;99.90;;;;;;5104923;28;20058;-80
2021/07/14 11:07:57;;;;;;;20.42;15.90;;;23.00;99.90;;;;;;5108624;28;20050;-78
2021/07/14 11:10:31;;;;;;;20.38;14.85;;;23.30;99.90;;;;;;5085590;28;20036;-81
2021/07/14 11:12:58;;;;;;;21.50;14.65;;;23.60;99.90;;;;;;5089349;28;20032;-80
2021/07/14 11:15:28;;;;;;;21.85;15.48;;;23.70;99.90;;;;;;5085198;28;20080;-80
2021/07/14 11:17:54;;;;;;;21.40;15.13;;;23.60;99.90;;;;;;5083008;28;20043;-78
2021/07/14 11:20:20;;;;;;;19.85;15.43;;;23.70;99.90;;;;;;5103022;28;20057;-81
2021/07/14 11:22:49;;;;;;;24.10;15.20;;;23.60;99.90;;;;;;5089795;28;20544;-82
2021/07/14 11:25:25;;;;;;;28.58;17.27;;;23.50;99.90;;;;;;5087900;28;20071;-79
2021/07/14 11:27:53;;;;;;;24.80;16.02;;;23.60;99.90;;;;;;5101325;28;20042;-79
2021/07/14 11:30:33;;;;;;;22.13;15.20;;;23.80;99.90;;;;;;5080718;28;20027;-79
2021/07/14 11:33:01;;;;;;;18.63;14.07;;;24.00;99.90;;;;;;5095211;28;20065;-81
2021/07/14 11:35:40;;;;;;;23.08;14.25;;;24.00;99.90;;;;;;5107070;28;20044;-81
2021/07/14 11:38:17;;;;;;;19.17;14.48;;;24.30;99.90;;;;;;5100647;28;20048;-80
2021/07/14 11:40:46;;;;;;;18.30;13.90;;;24.50;99.90;;;;;;5087621;28;20059;-78
2021/07/14 11:43:13;;;;;;;19.25;12.73;;;24.40;99.90;;;;;;5077947;28;20047;-82
2021/07/14 11:45:51;;;;;;;16.90;13.55;;;24.30;99.90;;;;;;5101232;28;20110;-79
2021/07/14 11:48:25;;;;;;;18.08;13.30;;;24.30;99.90;;;;;;5102270;28;20043;-82
2021/07/14 11:51:05;;;;;;;17.50;13.50;;;24.20;99.90;;;;;;5096238;28;20474;-79
2021/07/14 11:53:38;;;;;;;19.65;13.38;;;24.20;99.90;;;;;;5084347;28;20070;-80
2021/07/14 11:56:04;;;;;;;18.05;13.45;;;24.10;99.90;;;;;;5087225;28;20478;-80
2021/07/14 11:59:01;;;;;;;19.42;13.90;;;24.00;99.90;;;;;;5101116;28;20083;-82
2021/07/14 12:01:26;;;;;;;20.10;13.50;;;24.10;99.90;;;;;;5074893;28;20055;-80
2021/07/14 12:04:01;;;;;;;21.27;13.18;;;24.20;99.90;;;;;;5085303;28;20108;-79
2021/07/14 12:06:52;;;;;;;19.17;13.63;;;24.30;99.90;;;;;;5088336;28;20046;-79
2021/07/14 12:09:18;;;;;;;17.70;12.77;;;24.40;99.90;;;;;;5077846;28;20325;-79
2021/07/14 12:11:43;;;;;;;17.10;12.77;;;24.40;99.90;;;;;;5073862;28;20058;-79
2021/07/14 12:14:11;;;;;;;20.20;14.48;;;24.60;99.90;;;;;;5087633;28;20059;-80
2021/07/14 12:16:36;;;;;;;15.73;12.75;;;24.60;99.90;;;;;;5098535;28;20089;-79
2021/07/14 12:19:02;;;;;;;17.58;13.88;;;24.70;99.90;;;;;;5109518;28;20437;-80
2021/07/14 12:21:36;;;;;;;16.83;13.93;;;24.90;99.90;;;;;;5074349;28;20092;-79
2021/07/14 12:24:03;;;;;;;18.02;14.00;;;24.90;99.90;;;;;;5091633;28;20160;-79
2021/07/14 12:26:29;;;;;;;18.17;13.68;;;25.00;99.90;;;;;;5053888;28;20081;-81
2021/07/14 12:28:55;;;;;;;20.70;13.05;;;24.90;99.90;;;;;;5092035;28;20036;-78
2021/07/14 12:31:21;;;;;;;17.13;13.13;;;24.70;99.90;;;;;;5054778;28;20427;-81
2021/07/14 12:33:52;;;;;;;16.10;13.02;;;24.70;99.90;;;;;;5076632;28;20036;-80
2021/07/14 12:36:19;;;;;;;14.80;12.25;;;24.70;99.90;;;;;;5086540;28;20114;-81
2021/07/14 12:38:57;;;;;;;17.23;13.20;;;24.60;99.90;;;;;;5062809;28;20040;-81
2021/07/14 12:41:25;;;;;;;14.15;11.88;;;24.60;99.90;;;;;;5047693;28;20468;-81
2021/07/14 12:44:09;;;;;;;17.33;11.68;;;24.80;99.90;;;;;;5057571;28;20108;-78
2021/07/14 12:46:36;;;;;;;15.75;12.35;;;25.10;99.90;;;;;;5045110;28;20043;-81
2021/07/14 12:49:13;;;;;;;15.30;11.90;;;25.30;99.90;;;;;;5109230;28;20075;-80